AZU4051 SBRJ-SBCF
Flight info
| Callsign | AZU4051 |
|---|---|
| Flight time | 0h 45m |
| Altitude | 29000 |
| Route | DAKDA UZ4 TOKUR |
| Aircraft | E195/M-SDE3GILORVW/S |
Departure
| Time | 2026-04-28 03:12 |
|---|---|
| Airport | Santos Dumont Airport (SBRJ) |
Arrival
| Time | 2026-04-28 03:58 |
|---|---|
| Airport | Tancredo Neves International Airport (SBCF) |
| Time | Latitude | Longitude | Altitude | Speed | Heading |
|---|---|---|---|---|---|
| 2026-04-28 02:59 | -22.91171 | -43.16582 | 28 ft | 0 kts | 266° |
| 2026-04-28 03:00 | -22.91170 | -43.16558 | 28 ft | 4 kts | 276° |
| 2026-04-28 03:01 | -22.91176 | -43.16530 | 28 ft | 4 kts | 304° |
| 2026-04-28 03:01 | -22.91194 | -43.16514 | 28 ft | 3 kts | 355° |
| 2026-04-28 03:01 | -22.91202 | -43.16513 | 28 ft | 0 kts | 356° |
| 2026-04-28 03:04 | -22.91195 | -43.16513 | 28 ft | 2 kts | 357° |
| 2026-04-28 03:05 | -22.91170 | -43.16515 | 28 ft | 5 kts | 357° |
| 2026-04-28 03:05 | -22.91125 | -43.16521 | 28 ft | 8 kts | 348° |
| 2026-04-28 03:05 | -22.91064 | -43.16534 | 28 ft | 9 kts | 353° |
| 2026-04-28 03:05 | -22.90995 | -43.16541 | 28 ft | 11 kts | 355° |
| 2026-04-28 03:06 | -22.90928 | -43.16546 | 28 ft | 9 kts | 356° |
| 2026-04-28 03:06 | -22.90868 | -43.16549 | 28 ft | 9 kts | 357° |
| 2026-04-28 03:06 | -22.90804 | -43.16542 | 28 ft | 10 kts | 13° |
| 2026-04-28 03:06 | -22.90732 | -43.16543 | 28 ft | 11 kts | 356° |
| 2026-04-28 03:07 | -22.90642 | -43.16549 | 28 ft | 14 kts | 356° |
| 2026-04-28 03:07 | -22.90560 | -43.16554 | 28 ft | 10 kts | 356° |
| 2026-04-28 03:07 | -22.90501 | -43.16532 | 28 ft | 9 kts | 72° |
| 2026-04-28 03:07 | -22.90496 | -43.16482 | 28 ft | 0 kts | 87° |
| 2026-04-28 03:08 | -22.90496 | -43.16481 | 28 ft | 0 kts | 87° |
| 2026-04-28 03:10 | -22.90496 | -43.16471 | 28 ft | 4 kts | 87° |
| 2026-04-28 03:10 | -22.90494 | -43.16428 | 27 ft | 8 kts | 87° |
| 2026-04-28 03:11 | -22.90491 | -43.16356 | 26 ft | 10 kts | 91° |
| 2026-04-28 03:11 | -22.90514 | -43.16320 | 26 ft | 4 kts | 169° |
| 2026-04-28 03:11 | -22.90520 | -43.16319 | 26 ft | 1 kts | 172° |
| 2026-04-28 03:11 | -22.90534 | -43.16317 | 26 ft | 7 kts | 173° |
| 2026-04-28 03:12 | -22.90555 | -43.16315 | 26 ft | 17 kts | 176° |
| 2026-04-28 03:12 | -22.90923 | -43.16291 | 28 ft | 88 kts | 176° |
| 2026-04-28 03:12 | -22.91758 | -43.16241 | 36 ft | 148 kts | 177° |
| 2026-04-28 03:12 | -22.92813 | -43.16085 | 624 ft | 158 kts | 163° |
| 2026-04-28 03:13 | -22.93753 | -43.15400 | 1231 ft | 167 kts | 137° |
| 2026-04-28 03:13 | -22.94605 | -43.14576 | 2084 ft | 163 kts | 137° |
| 2026-04-28 03:13 | -22.95305 | -43.13645 | 2838 ft | 161 kts | 125° |
| 2026-04-28 03:13 | -22.96006 | -43.12714 | 3542 ft | 159 kts | 137° |
| 2026-04-28 03:14 | -22.96836 | -43.11921 | 4212 ft | 159 kts | 139° |
| 2026-04-28 03:14 | -22.97664 | -43.11130 | 4825 ft | 159 kts | 137° |
| 2026-04-28 03:14 | -22.98491 | -43.10321 | 5368 ft | 161 kts | 136° |
| 2026-04-28 03:14 | -22.99365 | -43.09467 | 5740 ft | 177 kts | 137° |
| 2026-04-28 03:15 | -23.00307 | -43.08545 | 6227 ft | 189 kts | 136° |
| 2026-04-28 03:15 | -23.01305 | -43.07526 | 6683 ft | 205 kts | 131° |
| 2026-04-28 03:15 | -23.02111 | -43.06153 | 7069 ft | 225 kts | 106° |
| 2026-04-28 03:15 | -23.02324 | -43.04423 | 7627 ft | 240 kts | 84° |
| 2026-04-28 03:16 | -23.01926 | -43.02626 | 8243 ft | 253 kts | 69° |
| 2026-04-28 03:16 | -23.01262 | -43.00805 | 8894 ft | 268 kts | 66° |
| 2026-04-28 03:16 | -23.00547 | -42.98877 | 9580 ft | 283 kts | 67° |
| 2026-04-28 03:16 | -22.99789 | -42.96846 | 10251 ft | 300 kts | 66° |
| 2026-04-28 03:17 | -22.98961 | -42.94697 | 10858 ft | 317 kts | 66° |
| 2026-04-28 03:17 | -22.97092 | -42.90174 | 12419 ft | 336 kts | 59° |
| 2026-04-28 03:17 | -22.95552 | -42.88289 | 13314 ft | 338 kts | 33° |
| 2026-04-28 03:18 | -22.93503 | -42.87036 | 14232 ft | 340 kts | 26° |
| 2026-04-28 03:18 | -22.91403 | -42.85812 | 15104 ft | 345 kts | 26° |
| 2026-04-28 03:18 | -22.89270 | -42.84580 | 15987 ft | 350 kts | 25° |
| 2026-04-28 03:18 | -22.86996 | -42.83660 | 16819 ft | 350 kts | 6° |
| 2026-04-28 03:19 | -22.84589 | -42.83701 | 17662 ft | 347 kts | 349° |
| 2026-04-28 03:19 | -22.82189 | -42.84079 | 18475 ft | 350 kts | 349° |
| 2026-04-28 03:19 | -22.79766 | -42.84448 | 19179 ft | 353 kts | 348° |
| 2026-04-28 03:19 | -22.77333 | -42.84847 | 19888 ft | 355 kts | 348° |
| 2026-04-28 03:20 | -22.74876 | -42.85233 | 20547 ft | 358 kts | 349° |
| 2026-04-28 03:20 | -22.72401 | -42.85617 | 21208 ft | 361 kts | 348° |
| 2026-04-28 03:20 | -22.69904 | -42.86008 | 21868 ft | 364 kts | 348° |
| 2026-04-28 03:20 | -22.67394 | -42.86432 | 22522 ft | 366 kts | 348° |
| 2026-04-28 03:21 | -22.64864 | -42.86853 | 23158 ft | 369 kts | 348° |
| 2026-04-28 03:21 | -22.62318 | -42.87279 | 23755 ft | 372 kts | 348° |
| 2026-04-28 03:21 | -22.59749 | -42.87705 | 24267 ft | 374 kts | 348° |
| 2026-04-28 03:21 | -22.57165 | -42.88136 | 24754 ft | 377 kts | 348° |
| 2026-04-28 03:22 | -22.54566 | -42.88567 | 25202 ft | 380 kts | 348° |
| 2026-04-28 03:22 | -22.51944 | -42.89004 | 25628 ft | 383 kts | 348° |
| 2026-04-28 03:22 | -22.49303 | -42.89441 | 26099 ft | 385 kts | 348° |
| 2026-04-28 03:22 | -22.46649 | -42.89886 | 26559 ft | 387 kts | 348° |
| 2026-04-28 03:23 | -22.43982 | -42.90330 | 26982 ft | 389 kts | 348° |
| 2026-04-28 03:23 | -22.41294 | -42.90772 | 27428 ft | 392 kts | 348° |
| 2026-04-28 03:23 | -22.38588 | -42.91219 | 27859 ft | 394 kts | 348° |
| 2026-04-28 03:23 | -22.35867 | -42.91669 | 28288 ft | 397 kts | 348° |
| 2026-04-28 03:24 | -22.33129 | -42.92113 | 28701 ft | 399 kts | 348° |
| 2026-04-28 03:24 | -22.30383 | -42.92574 | 29152 ft | 398 kts | 347° |
| 2026-04-28 03:24 | -22.27644 | -42.93030 | 29197 ft | 409 kts | 348° |
| 2026-04-28 03:24 | -22.24790 | -42.93500 | 29201 ft | 420 kts | 348° |
| 2026-04-28 03:25 | -22.18855 | -42.94494 | 29177 ft | 437 kts | 348° |
| 2026-04-28 03:25 | -22.12837 | -42.95479 | 29066 ft | 442 kts | 348° |
| 2026-04-28 03:26 | -22.06733 | -42.96472 | 29052 ft | 444 kts | 348° |
| 2026-04-28 03:26 | -22.00607 | -42.97485 | 29057 ft | 447 kts | 348° |
| 2026-04-28 03:27 | -21.94456 | -42.98499 | 29034 ft | 447 kts | 348° |
| 2026-04-28 03:27 | -21.88311 | -42.99510 | 29039 ft | 446 kts | 348° |
| 2026-04-28 03:28 | -21.82169 | -43.00521 | 29041 ft | 447 kts | 348° |
| 2026-04-28 03:28 | -21.77060 | -43.01361 | 29039 ft | 447 kts | 348° |
| 2026-04-28 03:29 | -21.70908 | -43.02371 | 29042 ft | 447 kts | 348° |
| 2026-04-28 03:29 | -21.63718 | -43.03548 | 29046 ft | 447 kts | 348° |
| 2026-04-28 03:30 | -21.58601 | -43.04385 | 29054 ft | 447 kts | 348° |
| 2026-04-28 03:30 | -21.52454 | -43.05391 | 29053 ft | 447 kts | 348° |
| 2026-04-28 03:31 | -21.46300 | -43.06398 | 29034 ft | 447 kts | 348° |
| 2026-04-28 03:31 | -21.40144 | -43.07405 | 29038 ft | 448 kts | 348° |
| 2026-04-28 03:32 | -21.33984 | -43.08410 | 29035 ft | 448 kts | 348° |
| 2026-04-28 03:32 | -21.27830 | -43.09415 | 29029 ft | 448 kts | 349° |
| 2026-04-28 03:33 | -21.21673 | -43.10418 | 29026 ft | 448 kts | 349° |
| 2026-04-28 03:33 | -21.15504 | -43.11423 | 29032 ft | 448 kts | 349° |
| 2026-04-28 03:34 | -21.09334 | -43.12425 | 29023 ft | 448 kts | 349° |
| 2026-04-28 03:34 | -21.03172 | -43.13429 | 29033 ft | 448 kts | 349° |
| 2026-04-28 03:35 | -20.97002 | -43.14433 | 29044 ft | 449 kts | 349° |
| 2026-04-28 03:35 | -20.90826 | -43.15435 | 29042 ft | 449 kts | 349° |
| 2026-04-28 03:36 | -20.84655 | -43.16436 | 29043 ft | 449 kts | 349° |
| 2026-04-28 03:36 | -20.78671 | -43.18124 | 29061 ft | 444 kts | 334° |
| 2026-04-28 03:37 | -20.73028 | -43.20839 | 29046 ft | 445 kts | 334° |
| 2026-04-28 03:37 | -20.67379 | -43.23542 | 29051 ft | 445 kts | 334° |
| 2026-04-28 03:38 | -20.61725 | -43.26245 | 29050 ft | 445 kts | 334° |
| 2026-04-28 03:38 | -20.56104 | -43.28926 | 29055 ft | 445 kts | 334° |
| 2026-04-28 03:39 | -20.50445 | -43.31626 | 29056 ft | 445 kts | 334° |
| 2026-04-28 03:39 | -20.47642 | -43.32961 | 28706 ft | 436 kts | 334° |
| 2026-04-28 03:39 | -20.44924 | -43.34255 | 28432 ft | 420 kts | 334° |
| 2026-04-28 03:40 | -20.42275 | -43.35516 | 27796 ft | 414 kts | 335° |
| 2026-04-28 03:40 | -20.39671 | -43.36754 | 27250 ft | 406 kts | 335° |
| 2026-04-28 03:40 | -20.37119 | -43.37969 | 26712 ft | 398 kts | 335° |
| 2026-04-28 03:40 | -20.34610 | -43.39161 | 26179 ft | 391 kts | 335° |
| 2026-04-28 03:41 | -20.32147 | -43.40334 | 25663 ft | 385 kts | 335° |
| 2026-04-28 03:41 | -20.29717 | -43.41489 | 25175 ft | 380 kts | 335° |
| 2026-04-28 03:41 | -20.27314 | -43.42630 | 24713 ft | 376 kts | 335° |
| 2026-04-28 03:41 | -20.24929 | -43.43762 | 24275 ft | 374 kts | 335° |
| 2026-04-28 03:42 | -20.22555 | -43.44889 | 23861 ft | 374 kts | 335° |
| 2026-04-28 03:42 | -20.20178 | -43.46016 | 23388 ft | 373 kts | 336° |
| 2026-04-28 03:42 | -20.17815 | -43.47135 | 22995 ft | 371 kts | 336° |
| 2026-04-28 03:42 | -20.15452 | -43.48255 | 22554 ft | 371 kts | 336° |
| 2026-04-28 03:43 | -20.13098 | -43.49370 | 22123 ft | 369 kts | 336° |
| 2026-04-28 03:43 | -20.10756 | -43.50479 | 21707 ft | 368 kts | 335° |
| 2026-04-28 03:43 | -20.08424 | -43.51585 | 21283 ft | 366 kts | 336° |
| 2026-04-28 03:43 | -20.06105 | -43.52682 | 20858 ft | 364 kts | 336° |
| 2026-04-28 03:44 | -20.03801 | -43.53771 | 20437 ft | 362 kts | 335° |
| 2026-04-28 03:44 | -20.01506 | -43.54858 | 20009 ft | 360 kts | 336° |
| 2026-04-28 03:44 | -19.99224 | -43.55937 | 19595 ft | 358 kts | 336° |
| 2026-04-28 03:44 | -19.96956 | -43.57012 | 19194 ft | 356 kts | 336° |
| 2026-04-28 03:45 | -19.94698 | -43.58078 | 18774 ft | 355 kts | 336° |
| 2026-04-28 03:45 | -19.92447 | -43.59141 | 18373 ft | 353 kts | 336° |
| 2026-04-28 03:45 | -19.90243 | -43.60182 | 17947 ft | 350 kts | 336° |
| 2026-04-28 03:45 | -19.88029 | -43.61229 | 17575 ft | 348 kts | 336° |
| 2026-04-28 03:46 | -19.85819 | -43.62290 | 17125 ft | 348 kts | 333° |
| 2026-04-28 03:46 | -19.83842 | -43.63765 | 16723 ft | 348 kts | 320° |
| 2026-04-28 03:46 | -19.82028 | -43.65466 | 16243 ft | 349 kts | 319° |
| 2026-04-28 03:46 | -19.80211 | -43.67164 | 15779 ft | 347 kts | 319° |
| 2026-04-28 03:47 | -19.78401 | -43.68852 | 15318 ft | 346 kts | 319° |
| 2026-04-28 03:47 | -19.76596 | -43.70529 | 14865 ft | 343 kts | 319° |
| 2026-04-28 03:47 | -19.74811 | -43.72189 | 14405 ft | 339 kts | 319° |
| 2026-04-28 03:47 | -19.73045 | -43.73826 | 13960 ft | 335 kts | 320° |
| 2026-04-28 03:48 | -19.71295 | -43.75444 | 13492 ft | 331 kts | 320° |
| 2026-04-28 03:48 | -19.69573 | -43.77035 | 13082 ft | 326 kts | 320° |
| 2026-04-28 03:48 | -19.67878 | -43.78607 | 12607 ft | 322 kts | 320° |
| 2026-04-28 03:48 | -19.66203 | -43.80160 | 12191 ft | 318 kts | 320° |
| 2026-04-28 03:49 | -19.64547 | -43.81694 | 11773 ft | 315 kts | 319° |
| 2026-04-28 03:49 | -19.62905 | -43.83214 | 11356 ft | 312 kts | 319° |
| 2026-04-28 03:49 | -19.61277 | -43.84720 | 10946 ft | 309 kts | 319° |
| 2026-04-28 03:49 | -19.59663 | -43.86216 | 10539 ft | 307 kts | 319° |
| 2026-04-28 03:50 | -19.58056 | -43.87702 | 10132 ft | 305 kts | 319° |
| 2026-04-28 03:50 | -19.56461 | -43.89177 | 9697 ft | 304 kts | 319° |
| 2026-04-28 03:50 | -19.54878 | -43.90642 | 9402 ft | 300 kts | 320° |
| 2026-04-28 03:50 | -19.53313 | -43.92087 | 9004 ft | 297 kts | 319° |
| 2026-04-28 03:51 | -19.51759 | -43.93524 | 8601 ft | 295 kts | 320° |
| 2026-04-28 03:51 | -19.50234 | -43.94930 | 8186 ft | 284 kts | 319° |
| 2026-04-28 03:51 | -19.48779 | -43.96274 | 7827 ft | 270 kts | 319° |
| 2026-04-28 03:51 | -19.47397 | -43.97551 | 7474 ft | 258 kts | 320° |
| 2026-04-28 03:52 | -19.46052 | -43.98791 | 7173 ft | 255 kts | 320° |
| 2026-04-28 03:52 | -19.44826 | -44.00158 | 6717 ft | 261 kts | 301° |
| 2026-04-28 03:52 | -19.44338 | -44.01975 | 6357 ft | 257 kts | 267° |
| 2026-04-28 03:52 | -19.44877 | -44.03702 | 6010 ft | 245 kts | 233° |
| 2026-04-28 03:53 | -19.45967 | -44.05041 | 5692 ft | 237 kts | 225° |
| 2026-04-28 03:53 | -19.47082 | -44.06313 | 5305 ft | 233 kts | 226° |
| 2026-04-28 03:53 | -19.48174 | -44.07533 | 5061 ft | 225 kts | 218° |
| 2026-04-28 03:53 | -19.49584 | -44.08150 | 4753 ft | 216 kts | 180° |
| 2026-04-28 03:54 | -19.50921 | -44.07892 | 5103 ft | 173 kts | 158° |
| 2026-04-28 03:54 | -19.51964 | -44.07441 | 5540 ft | 163 kts | 146° |
| 2026-04-28 03:54 | -19.52882 | -44.06614 | 5046 ft | 179 kts | 133° |
| 2026-04-28 03:54 | -19.53758 | -44.05771 | 4952 ft | 163 kts | 139° |
| 2026-04-28 03:55 | -19.54595 | -44.05049 | 4740 ft | 152 kts | 137° |
| 2026-04-28 03:55 | -19.55351 | -44.04337 | 4596 ft | 143 kts | 136° |
| 2026-04-28 03:55 | -19.56098 | -44.03636 | 4396 ft | 144 kts | 137° |
| 2026-04-28 03:55 | -19.56851 | -44.02944 | 4204 ft | 143 kts | 137° |
| 2026-04-28 03:56 | -19.57594 | -44.02253 | 4021 ft | 142 kts | 136° |
| 2026-04-28 03:56 | -19.58340 | -44.01558 | 3838 ft | 141 kts | 137° |
| 2026-04-28 03:56 | -19.59071 | -44.00880 | 3662 ft | 143 kts | 137° |
| 2026-04-28 03:56 | -19.59816 | -44.00187 | 3465 ft | 142 kts | 138° |
| 2026-04-28 03:57 | -19.60560 | -43.99492 | 3271 ft | 142 kts | 138° |
| 2026-04-28 03:57 | -19.61288 | -43.98789 | 3078 ft | 141 kts | 140° |
| 2026-04-28 03:57 | -19.62032 | -43.98110 | 2917 ft | 141 kts | 140° |
| 2026-04-28 03:57 | -19.62764 | -43.97437 | 2810 ft | 131 kts | 139° |
| 2026-04-28 03:58 | -19.63357 | -43.96889 | 2805 ft | 91 kts | 139° |
| 2026-04-28 03:58 | -19.63583 | -43.96607 | 2812 ft | 17 kts | 112° |
| 2026-04-28 03:58 | -19.63608 | -43.96534 | 2815 ft | 7 kts | 109° |
| 2026-04-28 03:58 | -19.63611 | -43.96523 | 2814 ft | 0 kts | 109° |
| 2026-04-28 03:59 | -19.63612 | -43.96522 | 2813 ft | 0 kts | 109° |
| 2026-04-28 03:59 | -19.63613 | -43.96517 | 2812 ft | 1 kts | 109° |
| 2026-04-28 03:59 | -19.63619 | -43.96498 | 2811 ft | 5 kts | 108° |
| 2026-04-28 03:59 | -19.63633 | -43.96454 | 2811 ft | 7 kts | 108° |
| 2026-04-28 04:00 | -19.63643 | -43.96397 | 2816 ft | 8 kts | 86° |
| 2026-04-28 04:00 | -19.63606 | -43.96353 | 2815 ft | 9 kts | 30° |
| 2026-04-28 04:00 | -19.63548 | -43.96321 | 2811 ft | 10 kts | 28° |
| 2026-04-28 04:00 | -19.63482 | -43.96294 | 2811 ft | 10 kts | 2° |
| 2026-04-28 04:01 | -19.63450 | -43.96312 | 2811 ft | 5 kts | 314° |
| 2026-04-28 04:01 | -19.63443 | -43.96322 | 2811 ft | 1 kts | 303° |
| 2026-04-28 04:01 | -19.63438 | -43.96333 | 2811 ft | 2 kts | 299° |
| 2026-04-28 04:01 | -19.63427 | -43.96352 | 2812 ft | 3 kts | 300° |
| 2026-04-28 04:02 | -19.63421 | -43.96364 | 2825 ft | 1 kts | 300° |
| 2026-04-28 04:02 | -19.63416 | -43.96373 | 2807 ft | 2 kts | 300° |
| 2026-04-28 04:02 | -19.63406 | -43.96390 | 2811 ft | 3 kts | 303° |
| 2026-04-28 04:02 | -19.63389 | -43.96412 | 2811 ft | 4 kts | 309° |
| 2026-04-28 04:03 | -19.63365 | -43.96440 | 2812 ft | 6 kts | 315° |
| 2026-04-28 04:03 | -19.63336 | -43.96469 | 2811 ft | 6 kts | 318° |
| 2026-04-28 04:03 | -19.63301 | -43.96493 | 2812 ft | 6 kts | 331° |
| 2026-04-28 04:03 | -19.63273 | -43.96491 | 2812 ft | 3 kts | 23° |
| 2026-04-28 04:04 | -19.63257 | -43.96478 | 2813 ft | 3 kts | 47° |
| 2026-04-28 04:04 | -19.63249 | -43.96454 | 2810 ft | 1 kts | 78° |
| 2026-04-28 04:04 | -19.63249 | -43.96452 | 2810 ft | 0 kts | 79° |